Time;durP1;ratioP1;P1;durP2;ratioP2;P2;SDS_P1;SDS_P2;PMS_P1;PMS_P2;Temp;Humidity;BMP_temperature;BMP_pressure;BME280_temperature;BME280_humidity;BME280_pressure;Samples;Min_cycle;Max_cycle;Signal;HPM_P1;HPM_P2
2021/10/26 00:02:24;;;;;;;8.27;6.50;;;9.10;98.50;;;;;;5030438;28;20037;-79
2021/10/26 00:04:49;;;;;;;10.55;6.22;;;9.00;98.40;;;;;;5030141;28;20104;-79
2021/10/26 00:07:15;;;;;;;12.48;6.95;;;9.00;98.50;;;;;;5030078;28;20040;-80
2021/10/26 00:09:41;;;;;;;11.23;6.00;;;8.90;98.40;;;;;;5028239;28;20104;-79
2021/10/26 00:12:07;;;;;;;9.52;6.85;;;8.90;98.50;;;;;;5028613;28;20103;-80
2021/10/26 00:14:33;;;;;;;13.85;6.60;;;8.90;98.60;;;;;;5030155;28;20033;-80
2021/10/26 00:16:59;;;;;;;10.30;6.78;;;8.80;98.70;;;;;;5029534;28;20123;-79
2021/10/26 00:19:25;;;;;;;8.45;5.97;;;8.80;98.70;;;;;;5029362;28;20486;-79
2021/10/26 00:21:50;;;;;;;9.00;6.40;;;8.70;98.80;;;;;;5029521;28;20036;-79
2021/10/26 00:24:16;;;;;;;9.63;6.68;;;8.70;98.90;;;;;;5030029;28;20033;-79
2021/10/26 00:26:42;;;;;;;10.13;6.88;;;8.70;98.90;;;;;;5028458;28;20030;-80
2021/10/26 00:29:07;;;;;;;10.77;6.70;;;8.60;98.90;;;;;;5028979;28;20096;-79
2021/10/26 00:31:33;;;;;;;11.00;6.57;;;8.60;98.90;;;;;;5029692;28;20095;-80
2021/10/26 00:33:59;;;;;;;10.63;6.90;;;8.60;99.00;;;;;;5029059;28;20029;-79
2021/10/26 00:36:25;;;;;;;10.40;6.70;;;8.50;99.00;;;;;;5029865;28;20437;-79
2021/10/26 00:38:51;;;;;;;9.07;7.22;;;8.50;99.10;;;;;;5027375;28;20390;-79
2021/10/26 00:41:17;;;;;;;10.93;6.63;;;8.50;99.20;;;;;;5028345;28;20064;-79
2021/10/26 00:43:43;;;;;;;12.75;6.55;;;8.40;99.20;;;;;;5029651;28;20068;-79
2021/10/26 00:46:09;;;;;;;8.50;6.38;;;8.40;99.20;;;;;;5028861;28;20038;-79
2021/10/26 00:48:35;;;;;;;8.95;7.07;;;8.40;99.20;;;;;;5027926;28;20167;-80
2021/10/26 00:51:00;;;;;;;10.77;7.05;;;8.40;99.30;;;;;;5029005;28;20128;-80
2021/10/26 00:53:26;;;;;;;8.18;6.57;;;8.40;99.40;;;;;;5028501;28;20108;-79
2021/10/26 00:55:51;;;;;;;9.98;6.93;;;8.30;99.40;;;;;;5029353;28;20037;-79
2021/10/26 00:58:18;;;;;;;9.93;7.30;;;8.30;99.40;;;;;;5028706;28;20032;-80
2021/10/26 01:00:44;;;;;;;10.25;6.78;;;8.30;99.50;;;;;;5029509;28;20542;-79
2021/10/26 01:03:10;;;;;;;9.20;6.45;;;8.30;99.60;;;;;;5029508;28;20041;-79
2021/10/26 01:05:35;;;;;;;10.75;7.35;;;8.30;99.60;;;;;;5029667;28;20152;-79
2021/10/26 01:08:01;;;;;;;14.93;7.03;;;8.30;99.70;;;;;;5028647;28;20051;-79
2021/10/26 01:10:27;;;;;;;9.15;6.63;;;8.20;99.70;;;;;;5029125;28;20048;-78
2021/10/26 01:12:52;;;;;;;10.02;6.82;;;8.20;99.70;;;;;;5029193;28;20605;-79
2021/10/26 01:15:18;;;;;;;9.63;6.85;;;8.20;99.80;;;;;;5029184;28;20065;-79
2021/10/26 01:17:44;;;;;;;9.52;6.30;;;8.20;99.90;;;;;;5028862;28;20109;-79
2021/10/26 01:20:10;;;;;;;11.55;7.22;;;8.20;99.90;;;;;;5029322;28;20040;-79
2021/10/26 01:22:39;;;;;;;9.82;6.78;;;8.20;99.90;;;;;;5029168;28;20033;-79
2021/10/26 01:25:07;;;;;;;8.90;6.18;;;8.20;99.90;;;;;;5029162;28;20034;-78
2021/10/26 01:27:33;;;;;;;7.63;5.97;;;8.20;99.90;;;;;;5028938;28;20029;-80
2021/10/26 01:29:58;;;;;;;7.60;5.78;;;8.20;99.90;;;;;;5028850;28;20287;-79
2021/10/26 01:32:24;;;;;;;9.93;7.05;;;8.20;99.80;;;;;;5029193;28;20026;-79
2021/10/26 01:34:49;;;;;;;9.95;6.25;;;8.20;99.80;;;;;;5024289;28;20097;-79
2021/10/26 01:37:15;;;;;;;10.88;6.80;;;8.20;99.70;;;;;;5024654;28;20068;-79
2021/10/26 01:39:41;;;;;;;8.63;6.45;;;8.10;99.70;;;;;;5024094;28;20033;-79
2021/10/26 01:42:08;;;;;;;9.00;6.45;;;8.10;99.80;;;;;;5009116;28;20129;-79
2021/10/26 01:44:34;;;;;;;10.27;6.25;;;8.10;99.80;;;;;;5024193;28;20121;-79
2021/10/26 01:46:59;;;;;;;11.15;6.30;;;8.10;99.80;;;;;;5024283;28;20475;-80
2021/10/26 01:49:25;;;;;;;11.60;6.53;;;8.00;99.90;;;;;;5008818;28;20037;-79
2021/10/26 01:51:51;;;;;;;8.88;6.57;;;8.00;99.90;;;;;;5008973;28;20381;-79
2021/10/26 01:54:17;;;;;;;9.18;7.03;;;8.00;99.90;;;;;;5009431;28;20515;-79
2021/10/26 01:56:43;;;;;;;8.35;6.45;;;8.00;99.90;;;;;;5009627;28;20052;-79
2021/10/26 01:59:09;;;;;;;9.50;6.22;;;8.00;99.90;;;;;;5012127;28;20112;-79
2021/10/26 02:01:35;;;;;;;11.27;6.78;;;8.00;99.90;;;;;;5012740;28;20033;-79
2021/10/26 02:04:00;;;;;;;10.70;6.70;;;8.00;99.90;;;;;;5012066;28;20026;-79
2021/10/26 02:06:26;;;;;;;8.65;6.93;;;8.00;99.90;;;;;;5012878;28;20026;-79
2021/10/26 02:08:51;;;;;;;10.25;6.35;;;8.00;99.90;;;;;;5027334;28;20036;-78
2021/10/26 02:11:17;;;;;;;7.13;5.85;;;8.00;99.90;;;;;;5034712;28;20478;-79
2021/10/26 02:13:43;;;;;;;7.93;6.45;;;8.00;99.90;;;;;;5032271;28;20033;-79
2021/10/26 02:16:09;;;;;;;9.23;5.85;;;7.90;99.90;;;;;;5030731;28;20033;-79
2021/10/26 02:18:35;;;;;;;8.15;6.00;;;8.00;99.90;;;;;;5032219;28;20064;-79
2021/10/26 02:21:00;;;;;;;11.90;7.35;;;7.90;99.90;;;;;;5031331;28;20061;-78
2021/10/26 02:23:26;;;;;;;7.97;6.30;;;7.90;99.90;;;;;;5032115;28;20026;-79
2021/10/26 02:25:52;;;;;;;9.90;6.65;;;7.90;99.90;;;;;;5031985;28;20044;-79
2021/10/26 02:28:19;;;;;;;11.85;6.82;;;7.90;99.90;;;;;;5031448;28;20513;-79
2021/10/26 02:30:44;;;;;;;8.43;6.05;;;7.90;99.90;;;;;;5031956;28;20030;-79
2021/10/26 02:33:11;;;;;;;8.70;6.05;;;7.90;99.90;;;;;;5030586;28;20041;-79
2021/10/26 02:35:37;;;;;;;7.53;6.28;;;7.90;99.90;;;;;;5032105;28;20044;-79
2021/10/26 02:38:03;;;;;;;10.55;6.85;;;7.90;99.90;;;;;;5029912;28;20116;-79
2021/10/26 02:40:28;;;;;;;9.45;6.53;;;7.80;99.90;;;;;;5031620;28;20028;-79
2021/10/26 02:42:54;;;;;;;9.75;6.50;;;7.80;99.90;;;;;;5031538;28;20025;-79
2021/10/26 02:45:21;;;;;;;9.85;6.47;;;7.90;99.90;;;;;;5032091;28;20447;-79
2021/10/26 02:47:47;;;;;;;8.65;7.18;;;7.80;99.90;;;;;;5031278;28;20029;-79
2021/10/26 02:50:12;;;;;;;9.25;6.53;;;7.80;99.90;;;;;;5031501;28;20099;-79
2021/10/26 02:52:38;;;;;;;7.22;6.50;;;7.80;99.90;;;;;;5031766;28;20021;-79
2021/10/26 02:55:05;;;;;;;9.75;7.05;;;7.80;99.90;;;;;;5029805;28;20482;-79
2021/10/26 02:57:31;;;;;;;11.82;6.97;;;7.80;99.90;;;;;;5031571;28;20072;-80
2021/10/26 02:59:57;;;;;;;8.40;5.93;;;7.90;99.90;;;;;;5030942;28;20061;-79
2021/10/26 03:02:22;;;;;;;11.13;7.13;;;7.90;99.90;;;;;;5031386;28;20104;-79
2021/10/26 03:04:47;;;;;;;14.10;6.65;;;7.90;99.90;;;;;;5031555;28;20037;-79
2021/10/26 03:07:13;;;;;;;9.50;7.47;;;8.00;99.90;;;;;;5030874;28;20099;-79
2021/10/26 03:09:38;;;;;;;11.52;7.70;;;8.00;99.90;;;;;;5030276;28;20026;-79
2021/10/26 03:12:04;;;;;;;8.10;6.70;;;8.10;99.90;;;;;;5030679;28;20029;-80
2021/10/26 03:14:30;;;;;;;9.18;7.05;;;8.10;99.90;;;;;;5031310;28;20029;-80
2021/10/26 03:16:55;;;;;;;10.00;6.93;;;8.20;99.90;;;;;;5030893;28;20033;-79
2021/10/26 03:19:21;;;;;;;10.80;7.53;;;8.20;99.90;;;;;;5030465;28;20133;-79
2021/10/26 03:21:46;;;;;;;12.75;7.22;;;8.30;99.90;;;;;;5030432;28;20501;-79
2021/10/26 03:24:12;;;;;;;11.68;6.85;;;8.40;99.90;;;;;;5031158;28;20047;-79
2021/10/26 03:26:37;;;;;;;11.70;6.75;;;8.40;99.90;;;;;;5031022;28;20394;-79
2021/10/26 03:29:03;;;;;;;8.82;6.10;;;8.50;99.90;;;;;;5029727;28;20045;-79
2021/10/26 03:31:28;;;;;;;10.45;6.35;;;8.60;99.90;;;;;;5030379;28;20033;-79
2021/10/26 03:33:54;;;;;;;10.45;7.43;;;8.60;99.90;;;;;;5030465;28;20029;-80
2021/10/26 03:36:20;;;;;;;10.57;7.35;;;8.70;99.90;;;;;;5030730;28;20557;-79
2021/10/26 03:38:47;;;;;;;11.88;7.32;;;8.70;99.90;;;;;;5030231;28;20036;-79
2021/10/26 03:41:12;;;;;;;13.48;7.22;;;8.80;99.90;;;;;;5028317;28;20052;-80
2021/10/26 03:43:38;;;;;;;9.57;7.15;;;8.90;99.90;;;;;;5029759;28;20455;-80
2021/10/26 03:46:03;;;;;;;9.80;6.57;;;9.00;99.90;;;;;;5030272;28;20300;-80
2021/10/26 03:48:29;;;;;;;9.18;7.05;;;9.00;99.90;;;;;;5030292;28;20486;-79
2021/10/26 03:50:55;;;;;;;9.10;6.65;;;9.10;99.90;;;;;;5029875;28;20064;-80
2021/10/26 03:53:20;;;;;;;10.25;7.03;;;9.20;99.90;;;;;;5030796;28;20031;-79
2021/10/26 03:55:46;;;;;;;9.82;7.05;;;9.30;99.90;;;;;;5030385;28;20049;-80
2021/10/26 03:58:11;;;;;;;10.90;6.45;;;9.30;99.90;;;;;;5029507;28;20239;-79
2021/10/26 04:00:38;;;;;;;11.77;7.43;;;9.40;99.90;;;;;;5030819;28;20435;-79
2021/10/26 04:03:03;;;;;;;11.80;7.28;;;9.50;99.90;;;;;;5029684;28;20022;-79
2021/10/26 04:05:46;;;;;;;7.97;6.55;;;9.60;99.70;;;;;;5030299;28;20386;-79
2021/10/26 04:10:48;;;;;;;9.20;6.28;;;9.80;99.50;;;;;;5030550;28;20043;-79
2021/10/26 04:13:13;;;;;;;12.38;7.40;;;9.80;99.30;;;;;;5029847;28;20120;-79
2021/10/26 04:15:39;;;;;;;8.73;6.35;;;9.90;99.20;;;;;;5031507;28;20113;-80
2021/10/26 04:18:04;;;;;;;8.50;6.20;;;9.90;99.10;;;;;;5029531;28;20027;-80
2021/10/26 04:20:30;;;;;;;9.75;6.88;;;10.00;99.00;;;;;;5028992;28;20036;-79
2021/10/26 04:22:56;;;;;;;11.90;6.40;;;10.00;98.90;;;;;;5029466;28;20037;-80
2021/10/26 04:25:21;;;;;;;12.18;5.95;;;10.00;98.80;;;;;;5029779;28;20033;-80
2021/10/26 04:27:47;;;;;;;9.82;6.43;;;10.00;98.70;;;;;;5028136;28;20025;-80
2021/10/26 04:30:13;;;;;;;8.88;6.22;;;10.00;98.70;;;;;;5029535;28;20458;-80
2021/10/26 04:32:39;;;;;;;7.35;5.55;;;10.10;98.60;;;;;;5028491;28;20028;-80
2021/10/26 04:35:05;;;;;;;7.93;5.85;;;10.10;98.60;;;;;;5029348;28;20119;-80
2021/10/26 04:37:31;;;;;;;8.20;6.68;;;10.10;98.50;;;;;;5027877;28;20104;-80
2021/10/26 04:39:57;;;;;;;9.38;6.47;;;10.10;98.50;;;;;;5029974;28;20116;-80
2021/10/26 04:42:22;;;;;;;10.50;6.72;;;10.10;98.50;;;;;;5029405;28;20033;-80
2021/10/26 04:44:48;;;;;;;8.85;6.38;;;10.10;98.40;;;;;;5029819;28;20100;-80
2021/10/26 04:47:15;;;;;;;10.57;6.68;;;10.10;98.40;;;;;;5029370;28;20029;-79
2021/10/26 04:49:41;;;;;;;12.93;6.90;;;10.10;98.20;;;;;;5027775;28;20394;-80
2021/10/26 04:52:07;;;;;;;9.50;6.35;;;10.10;98.20;;;;;;5028800;28;20037;-79
2021/10/26 04:54:32;;;;;;;9.90;6.75;;;10.10;98.20;;;;;;5028306;28;20079;-79
2021/10/26 04:56:58;;;;;;;11.32;6.57;;;10.10;98.20;;;;;;5029588;28;20064;-79
2021/10/26 04:59:23;;;;;;;11.85;7.00;;;10.20;98.10;;;;;;5028461;28;20022;-80
2021/10/26 05:01:49;;;;;;;12.63;6.40;;;10.10;98.10;;;;;;5029009;28;20429;-79
2021/10/26 05:04:14;;;;;;;10.55;6.65;;;10.10;98.10;;;;;;5029324;28;20065;-79
2021/10/26 05:06:40;;;;;;;8.10;6.13;;;10.10;98.20;;;;;;5029267;28;20083;-80
2021/10/26 05:09:06;;;;;;;13.77;6.93;;;10.00;98.20;;;;;;5028777;28;20045;-80
2021/10/26 05:11:31;;;;;;;15.65;6.80;;;10.10;98.20;;;;;;5027589;28;20109;-79
2021/10/26 05:13:57;;;;;;;9.13;6.40;;;10.10;98.20;;;;;;5029034;28;20104;-80
2021/10/26 05:16:25;;;;;;;8.18;5.80;;;10.10;98.20;;;;;;5027980;28;20033;-79
2021/10/26 05:18:53;;;;;;;10.25;6.15;;;10.10;98.40;;;;;;5027950;28;20021;-80
2021/10/26 05:21:21;;;;;;;9.05;6.38;;;10.10;98.20;;;;;;5029147;28;20025;-80
2021/10/26 05:23:48;;;;;;;9.93;6.65;;;10.10;98.20;;;;;;5028909;28;20029;-80
2021/10/26 05:26:15;;;;;;;12.70;7.07;;;10.10;98.30;;;;;;5029664;28;20030;-80
2021/10/26 05:28:41;;;;;;;8.05;6.53;;;10.10;98.20;;;;;;5021303;28;20041;-80
2021/10/26 05:31:08;;;;;;;9.75;7.03;;;10.20;98.20;;;;;;5009400;28;20073;-80
2021/10/26 05:33:36;;;;;;;11.07;8.20;;;10.10;98.20;;;;;;5027871;28;20391;-80
2021/10/26 05:36:02;;;;;;;9.80;6.20;;;10.20;98.20;;;;;;5013232;28;20045;-80
2021/10/26 05:38:28;;;;;;;9.52;6.85;;;10.20;98.30;;;;;;5012424;28;20112;-80
2021/10/26 05:40:53;;;;;;;12.32;7.30;;;10.20;98.30;;;;;;5012855;28;20211;-80
2021/10/26 05:43:19;;;;;;;11.25;6.68;;;10.20;98.40;;;;;;5012738;28;20120;-79
2021/10/26 05:45:47;;;;;;;11.57;7.25;;;10.20;98.40;;;;;;5013331;28;20049;-79
2021/10/26 05:48:13;;;;;;;11.50;7.13;;;10.30;98.40;;;;;;5012324;28;20045;-79
2021/10/26 05:50:39;;;;;;;9.45;6.70;;;10.30;98.50;;;;;;5012683;28;20058;-80
2021/10/26 05:53:05;;;;;;;11.65;7.18;;;10.30;98.40;;;;;;5012414;28;20558;-80
2021/10/26 05:55:30;;;;;;;18.30;7.20;;;10.30;98.50;;;;;;5012532;28;20144;-80
2021/10/26 05:57:56;;;;;;;9.63;6.80;;;10.30;98.50;;;;;;5012013;28;20083;-80
2021/10/26 06:00:25;;;;;;;9.27;7.35;;;10.30;98.50;;;;;;5012430;28;20414;-79
2021/10/26 06:02:50;;;;;;;10.35;7.30;;;10.40;98.50;;;;;;5011847;28;20029;-79
2021/10/26 06:05:16;;;;;;;16.88;7.78;;;10.40;98.60;;;;;;5012630;28;20033;-79
2021/10/26 06:07:41;;;;;;;13.48;7.18;;;10.40;98.60;;;;;;5011801;28;20117;-80
2021/10/26 06:10:08;;;;;;;11.90;8.57;;;10.40;98.70;;;;;;5012669;28;20030;-79
2021/10/26 06:12:36;;;;;;;11.73;7.72;;;10.40;98.60;;;;;;5012518;28;20060;-79
2021/10/26 06:15:02;;;;;;;13.43;7.32;;;10.50;98.60;;;;;;5012777;28;20479;-79
2021/10/26 06:17:28;;;;;;;8.63;6.93;;;10.50;98.70;;;;;;5012453;28;20113;-80
2021/10/26 06:19:53;;;;;;;12.95;7.75;;;10.50;98.60;;;;;;5011872;28;20053;-79
2021/10/26 06:22:19;;;;;;;9.40;6.80;;;10.60;98.70;;;;;;5023718;28;20409;-79
2021/10/26 06:24:46;;;;;;;12.25;7.78;;;10.60;98.80;;;;;;5031899;28;20038;-80
2021/10/26 06:27:11;;;;;;;12.45;7.22;;;10.60;98.90;;;;;;5032078;28;20025;-80
2021/10/26 06:29:37;;;;;;;14.77;8.07;;;10.70;98.90;;;;;;5031398;28;20037;-79
2021/10/26 06:32:03;;;;;;;11.25;7.85;;;10.70;98.90;;;;;;5031428;28;20548;-80
2021/10/26 06:34:28;;;;;;;13.40;7.28;;;10.70;99.00;;;;;;5031872;28;20026;-80
2021/10/26 06:36:53;;;;;;;11.93;7.28;;;10.80;99.00;;;;;;5030175;28;20048;-80
2021/10/26 06:39:21;;;;;;;12.55;7.47;;;10.80;99.00;;;;;;5030830;28;20033;-80
2021/10/26 06:41:48;;;;;;;11.25;7.47;;;10.90;99.00;;;;;;5031462;28;20033;-80
2021/10/26 06:44:14;;;;;;;14.63;7.53;;;10.90;99.00;;;;;;5030617;28;20078;-80
2021/10/26 06:46:39;;;;;;;10.48;7.15;;;11.00;99.00;;;;;;5031842;28;20124;-80
2021/10/26 06:49:05;;;;;;;15.15;7.88;;;11.00;98.80;;;;;;5031032;28;20116;-80
2021/10/26 06:51:31;;;;;;;12.25;7.93;;;11.10;98.80;;;;;;5031752;28;20378;-80
2021/10/26 06:53:57;;;;;;;11.02;7.80;;;11.20;98.70;;;;;;5031423;28;20025;-80
2021/10/26 06:56:23;;;;;;;8.30;6.40;;;11.20;98.60;;;;;;5029879;28;20067;-80
2021/10/26 06:58:48;;;;;;;13.40;7.32;;;11.30;98.50;;;;;;5030596;28;20052;-80
2021/10/26 07:01:14;;;;;;;12.35;7.85;;;11.30;98.40;;;;;;5046755;28;20028;-81
2021/10/26 07:03:40;;;;;;;14.07;7.15;;;11.40;98.40;;;;;;5031629;28;20393;-80
2021/10/26 07:06:07;;;;;;;9.80;7.18;;;11.40;98.10;;;;;;5031478;28;20025;-81
2021/10/26 07:08:33;;;;;;;11.43;8.20;;;11.50;98.10;;;;;;5029510;28;20057;-80
2021/10/26 07:10:59;;;;;;;12.27;7.65;;;11.50;98.10;;;;;;5030891;28;20108;-79
2021/10/26 07:13:26;;;;;;;10.05;7.15;;;11.60;98.10;;;;;;5031144;28;20036;-78
2021/10/26 07:15:52;;;;;;;10.52;6.90;;;11.70;98.10;;;;;;5031146;28;20490;-79
2021/10/26 07:18:17;;;;;;;12.95;8.05;;;11.70;97.90;;;;;;5030489;28;20025;-79
2021/10/26 07:20:43;;;;;;;15.95;8.32;;;11.80;97.80;;;;;;5030867;28;20040;-79
2021/10/26 07:23:09;;;;;;;10.23;6.72;;;11.80;97.90;;;;;;5029869;28;20037;-80
2021/10/26 07:25:35;;;;;;;14.57;7.68;;;11.80;97.80;;;;;;5030986;28;20072;-79
2021/10/26 07:28:00;;;;;;;9.80;7.35;;;12.00;97.90;;;;;;5029877;28;20056;-80
2021/10/26 07:30:32;;;;;;;13.45;7.28;;;12.00;97.70;;;;;;5030890;28;20199;-80
2021/10/26 07:33:02;;;;;;;11.48;7.15;;;12.10;97.70;;;;;;5030253;28;20029;-79
2021/10/26 07:35:42;;;;;;;14.98;7.80;;;12.10;97.50;;;;;;5030876;28;20025;-79
2021/10/26 07:38:10;;;;;;;11.52;7.05;;;12.20;97.40;;;;;;5030116;28;20037;-80
2021/10/26 07:40:35;;;;;;;15.60;7.25;;;12.30;97.20;;;;;;5030762;28;20042;-80
2021/10/26 07:43:01;;;;;;;8.32;6.93;;;12.30;97.10;;;;;;5030314;28;20429;-79
2021/10/26 07:45:27;;;;;;;11.35;7.35;;;12.30;97.10;;;;;;5031179;28;20351;-79
2021/10/26 07:47:52;;;;;;;14.95;7.40;;;12.30;97.10;;;;;;5030165;28;20033;-79
2021/10/26 07:50:18;;;;;;;11.98;7.88;;;12.40;97.10;;;;;;5028668;28;20059;-79
2021/10/26 07:52:44;;;;;;;11.25;7.85;;;12.40;97.00;;;;;;5030398;28;20029;-78
2021/10/26 07:55:09;;;;;;;14.48;8.35;;;12.50;97.10;;;;;;5029864;28;20473;-78
2021/10/26 07:57:35;;;;;;;14.75;7.78;;;12.60;96.90;;;;;;5030343;28;20029;-78
2021/10/26 08:00:00;;;;;;;11.27;7.25;;;12.60;96.90;;;;;;5029519;28;20363;-79
2021/10/26 08:02:26;;;;;;;11.15;7.53;;;12.60;96.80;;;;;;5030153;28;20412;-79
2021/10/26 08:04:54;;;;;;;14.20;7.90;;;12.70;96.90;;;;;;5030113;28;20467;-79
2021/10/26 08:07:21;;;;;;;15.00;7.20;;;12.80;96.80;;;;;;5029510;28;20048;-79
2021/10/26 08:09:48;;;;;;;12.45;7.45;;;12.90;96.80;;;;;;5029670;28;20026;-79
2021/10/26 08:12:14;;;;;;;13.30;7.18;;;12.90;96.50;;;;;;5028352;28;20033;-79
2021/10/26 08:14:40;;;;;;;12.73;7.50;;;12.90;96.50;;;;;;5030530;28;20025;-79
2021/10/26 08:17:06;;;;;;;10.48;6.78;;;12.90;96.60;;;;;;5030138;28;20064;-79
2021/10/26 08:19:33;;;;;;;11.00;6.85;;;12.90;96.80;;;;;;5028271;28;20592;-79
2021/10/26 08:21:59;;;;;;;10.10;6.95;;;13.00;96.70;;;;;;5028234;28;20087;-79
2021/10/26 08:24:29;;;;;;;10.88;6.65;;;13.10;96.50;;;;;;5029834;28;20609;-79
2021/10/26 08:26:59;;;;;;;12.52;7.25;;;13.10;96.40;;;;;;5028845;28;20372;-79
2021/10/26 08:35:18;;;;;;;13.05;6.65;;;13.20;96.70;;;;;;5049292;28;20148;-79
2021/10/26 08:37:46;;;;;;;9.45;7.03;;;13.30;96.60;;;;;;5049167;28;20063;-79
2021/10/26 08:40:12;;;;;;;8.73;6.93;;;13.30;96.50;;;;;;5049328;28;20083;-80
2021/10/26 08:42:37;;;;;;;10.30;6.93;;;13.40;96.40;;;;;;5049968;28;20033;-79
2021/10/26 08:45:04;;;;;;;9.25;6.30;;;13.50;96.30;;;;;;5049502;28;20082;-80
2021/10/26 08:47:30;;;;;;;11.23;7.13;;;13.60;96.60;;;;;;5049332;28;20523;-80
2021/10/26 08:49:56;;;;;;;9.88;6.55;;;13.70;96.20;;;;;;5049248;28;20263;-80
2021/10/26 08:52:24;;;;;;;10.02;6.97;;;13.90;96.10;;;;;;5049140;28;20036;-80
2021/10/26 08:54:54;;;;;;;13.65;6.90;;;13.90;96.10;;;;;;5049689;28;20017;-80
2021/10/26 08:57:20;;;;;;;10.45;6.38;;;14.00;95.60;;;;;;5064533;28;20044;-79
2021/10/26 08:59:46;;;;;;;8.00;5.90;;;14.10;95.70;;;;;;5048911;28;20082;-80
2021/10/26 09:02:12;;;;;;;11.30;6.20;;;14.20;95.40;;;;;;5049185;28;20100;-80
2021/10/26 09:04:38;;;;;;;12.73;6.30;;;14.30;95.30;;;;;;5049485;28;20036;-80
2021/10/26 09:07:14;;;;;;;10.13;6.75;;;14.30;95.10;;;;;;5049588;28;20033;-80
2021/10/26 09:09:40;;;;;;;10.40;5.68;;;14.40;95.20;;;;;;5052838;28;20025;-80
2021/10/26 09:17:48;;;;;;;12.30;5.50;;;14.60;95.10;;;;;;5052795;28;20069;-80
2021/10/26 09:20:27;;;;;;;8.43;5.20;;;14.60;94.80;;;;;;5053112;28;20029;-80
2021/10/26 09:22:57;;;;;;;8.18;5.82;;;14.70;94.80;;;;;;5053259;28;20563;-81
2021/10/26 09:25:37;;;;;;;11.25;5.57;;;14.70;95.10;;;;;;5052718;28;20059;-80
2021/10/26 09:28:16;;;;;;;8.70;5.50;;;14.80;94.30;;;;;;5052528;28;20033;-80
2021/10/26 09:30:56;;;;;;;7.38;4.68;;;14.80;94.40;;;;;;5052734;28;20486;-80
2021/10/26 09:33:34;;;;;;;10.25;5.22;;;14.80;94.30;;;;;;5052978;28;20155;-80
2021/10/26 09:36:30;;;;;;;7.43;5.45;;;14.80;94.50;;;;;;5051524;28;20196;-80
2021/10/26 09:39:09;;;;;;;6.85;4.70;;;14.90;94.60;;;;;;5052615;28;20033;-79
2021/10/26 09:41:58;;;;;;;9.95;5.57;;;14.90;94.30;;;;;;5052536;28;20039;-79
2021/10/26 09:44:29;;;;;;;6.15;4.53;;;14.90;94.20;;;;;;5052874;28;20064;-80
2021/10/26 09:47:24;;;;;;;6.57;5.30;;;14.90;94.50;;;;;;5052928;28;20037;-80
2021/10/26 09:49:53;;;;;;;5.95;4.72;;;14.90;94.30;;;;;;5050351;28;20029;-80
2021/10/26 09:52:24;;;;;;;6.70;4.35;;;14.90;94.20;;;;;;5052723;28;20125;-80
2021/10/26 09:57:49;;;;;;;8.15;4.57;;;14.90;94.30;;;;;;5052741;28;20390;-80
2021/10/26 10:00:24;;;;;;;6.20;4.95;;;15.00;94.60;;;;;;5052126;28;20547;-80
2021/10/26 10:03:10;;;;;;;5.72;4.40;;;15.10;94.30;;;;;;5052548;28;20049;-80
2021/10/26 10:05:43;;;;;;;6.60;4.68;;;15.10;93.90;;;;;;5052027;28;20469;-80
2021/10/26 10:08:28;;;;;;;7.95;4.43;;;15.00;94.00;;;;;;5051835;28;20082;-80
2021/10/26 10:11:12;;;;;;;11.60;6.35;;;14.90;94.30;;;;;;5050490;28;20029;-80
2021/10/26 10:13:42;;;;;;;6.40;4.70;;;14.90;94.40;;;;;;5052533;28;20108;-80
2021/10/26 10:16:15;;;;;;;8.10;5.07;;;15.00;94.70;;;;;;5051951;28;20043;-80
2021/10/26 10:18:50;;;;;;;5.18;4.00;;;15.00;94.40;;;;;;5052175;28;20116;-80
2021/10/26 10:21:21;;;;;;;7.50;4.68;;;15.00;94.40;;;;;;5051312;28;20499;-80
2021/10/26 10:23:47;;;;;;;7.65;4.05;;;15.00;94.20;;;;;;5052552;28;20021;-80
2021/10/26 10:26:28;;;;;;;6.10;4.22;;;15.10;94.40;;;;;;5051689;28;20480;-81
2021/10/26 10:28:55;;;;;;;7.60;4.15;;;15.10;94.30;;;;;;5051110;28;20026;-80
2021/10/26 10:31:25;;;;;;;5.75;4.35;;;15.10;94.30;;;;;;5050045;28;20033;-80
2021/10/26 10:33:54;;;;;;;6.00;4.40;;;15.10;94.60;;;;;;5046587;28;20037;-81
2021/10/26 10:36:20;;;;;;;6.30;4.47;;;15.20;94.40;;;;;;5031817;28;20021;-80
2021/10/26 10:38:47;;;;;;;6.50;4.68;;;15.20;94.20;;;;;;5033596;28;20057;-80
2021/10/26 10:41:31;;;;;;;8.85;4.32;;;15.30;94.30;;;;;;5051240;28;20029;-81
2021/10/26 10:43:59;;;;;;;9.80;4.75;;;15.40;94.00;;;;;;5051729;28;20389;-81
2021/10/26 10:46:41;;;;;;;4.40;3.10;;;15.50;93.90;;;;;;5051463;28;20725;-82
2021/10/26 10:49:26;;;;;;;7.22;4.93;;;15.60;93.50;;;;;;5044823;28;20021;-79
2021/10/26 10:51:59;;;;;;;6.35;4.00;;;15.70;93.40;;;;;;5011691;28;20029;-79
2021/10/26 10:54:48;;;;;;;6.13;4.13;;;15.70;93.50;;;;;;5012335;28;20034;-81
2021/10/26 10:57:28;;;;;;;9.90;4.90;;;15.60;93.50;;;;;;5011351;28;20034;-80
2021/10/26 10:59:55;;;;;;;5.68;3.58;;;15.60;93.80;;;;;;5011434;28;20482;-79
2021/10/26 11:02:26;;;;;;;5.68;3.80;;;15.60;93.40;;;;;;5010958;28;20036;-80
2021/10/26 11:04:54;;;;;;;6.90;3.75;;;15.60;94.00;;;;;;5011983;28;20463;-79
2021/10/26 11:07:41;;;;;;;5.32;3.88;;;15.70;93.50;;;;;;5009962;28;20025;-79
2021/10/26 11:10:07;;;;;;;8.55;4.28;;;15.70;93.50;;;;;;5011472;28;20033;-79
2021/10/26 11:12:35;;;;;;;5.22;3.72;;;15.60;93.60;;;;;;5011337;28;20030;-79
2021/10/26 11:15:13;;;;;;;5.28;3.60;;;15.60;94.00;;;;;;5011464;28;20026;-80
2021/10/26 11:17:45;;;;;;;7.30;4.07;;;15.60;93.90;;;;;;5011205;28;20030;-79
2021/10/26 11:20:25;;;;;;;5.72;3.55;;;15.60;94.00;;;;;;5010972;28;20026;-79
2021/10/26 11:22:52;;;;;;;3.88;2.75;;;15.70;93.80;;;;;;5011068;28;20037;-79
2021/10/26 11:25:27;;;;;;;3.60;2.72;;;15.70;93.80;;;;;;5011065;28;20053;-79
2021/10/26 11:27:56;;;;;;;4.25;2.83;;;15.80;93.50;;;;;;5010741;28;20045;-79
2021/10/26 11:30:27;;;;;;;5.00;2.75;;;15.90;93.20;;;;;;5010275;28;20399;-79
2021/10/26 11:33:15;;;;;;;4.00;3.10;;;16.00;92.90;;;;;;5010915;28;20501;-80
2021/10/26 11:35:49;;;;;;;3.97;2.25;;;15.90;93.10;;;;;;5011002;28;20117;-80
2021/10/26 11:38:23;;;;;;;3.45;2.53;;;15.90;93.10;;;;;;5010475;28;20033;-79
2021/10/26 11:41:13;;;;;;;6.78;3.15;;;15.90;93.40;;;;;;5010533;28;20088;-80
2021/10/26 11:43:48;;;;;;;4.05;2.28;;;16.00;93.20;;;;;;5011318;28;20022;-80
2021/10/26 11:46:24;;;;;;;3.65;2.20;;;15.90;93.20;;;;;;5010863;28;20030;-80
2021/10/26 11:49:02;;;;;;;3.83;2.60;;;16.00;93.40;;;;;;5010330;28;20054;-80
2021/10/26 11:51:42;;;;;;;3.63;2.40;;;16.10;93.10;;;;;;5010806;28;20029;-79
2021/10/26 11:54:18;;;;;;;3.42;2.25;;;16.20;93.20;;;;;;5026115;28;20033;-80
2021/10/26 11:56:53;;;;;;;2.83;2.45;;;16.30;93.20;;;;;;5010603;28;20030;-79
2021/10/26 11:59:36;;;;;;;4.18;2.15;;;16.30;93.10;;;;;;5009326;28;20037;-80
2021/10/26 12:02:05;;;;;;;3.50;2.58;;;16.40;92.80;;;;;;5010390;28;20032;-80
2021/10/26 12:04:39;;;;;;;2.40;1.65;;;16.50;93.10;;;;;;5010727;28;20030;-80
2021/10/26 12:07:13;;;;;;;5.85;2.40;;;16.50;92.60;;;;;;5010612;28;20425;-80
2021/10/26 12:09:41;;;;;;;2.63;2.10;;;16.60;92.50;;;;;;5008833;28;20047;-80
2021/10/26 12:12:13;;;;;;;3.53;1.98;;;16.50;92.30;;;;;;5010000;28;20029;-79
2021/10/26 12:14:40;;;;;;;3.03;2.22;;;16.50;92.30;;;;;;5010999;28;20041;-80
2021/10/26 12:17:26;;;;;;;3.17;2.40;;;16.50;92.30;;;;;;5010155;28;20040;-82
2021/10/26 12:20:21;;;;;;;4.68;2.38;;;16.50;92.50;;;;;;5008820;28;20033;-80
2021/10/26 12:22:55;;;;;;;3.78;2.42;;;16.50;92.20;;;;;;5010105;28;20037;-80
2021/10/26 12:25:26;;;;;;;4.07;2.38;;;16.50;92.10;;;;;;5010248;28;20030;-79
2021/10/26 12:27:53;;;;;;;3.33;2.03;;;16.50;91.80;;;;;;5009278;28;20064;-79
2021/10/26 12:30:22;;;;;;;2.90;2.28;;;16.50;91.90;;;;;;5019672;28;20119;-79
2021/10/26 12:33:06;;;;;;;3.10;1.95;;;16.50;92.10;;;;;;5029384;28;20028;-79
2021/10/26 12:35:42;;;;;;;3.70;2.30;;;16.60;92.40;;;;;;5030463;28;20037;-79
2021/10/26 12:38:16;;;;;;;4.85;2.10;;;16.60;92.10;;;;;;5026977;28;20482;-80
2021/10/26 12:40:44;;;;;;;2.67;1.85;;;16.50;92.20;;;;;;5010232;28;20029;-80
2021/10/26 12:43:12;;;;;;;3.28;2.20;;;16.60;92.20;;;;;;5010369;28;20060;-80
2021/10/26 12:45:40;;;;;;;2.85;2.35;;;16.60;92.10;;;;;;5010200;28;20121;-81
2021/10/26 12:48:12;;;;;;;4.05;2.00;;;16.60;91.90;;;;;;5008020;28;20037;-80
2021/10/26 12:50:51;;;;;;;3.38;2.00;;;16.60;91.90;;;;;;5010212;28;20033;-80
2021/10/26 12:53:27;;;;;;;4.38;1.77;;;16.70;91.80;;;;;;5009728;28;20561;-80
2021/10/26 12:55:55;;;;;;;3.67;2.00;;;16.60;92.00;;;;;;5009546;28;20033;-80
2021/10/26 12:58:44;;;;;;;2.45;1.70;;;16.60;92.30;;;;;;5008638;28;20037;-79
2021/10/26 13:01:20;;;;;;;2.92;2.17;;;16.60;92.10;;;;;;5009115;28;20032;-80
2021/10/26 13:04:08;;;;;;;4.45;2.78;;;16.70;92.30;;;;;;5010100;28;20064;-81
2021/10/26 13:06:37;;;;;;;4.63;1.90;;;16.80;92.10;;;;;;5008596;28;20026;-80
2021/10/26 13:09:08;;;;;;;4.05;2.17;;;17.00;92.20;;;;;;5009222;28;20030;-79
2021/10/26 13:11:42;;;;;;;2.70;1.65;;;17.20;91.40;;;;;;5010090;28;20105;-80